Observations for PRESTWICK CIV NAVY, United Kingdom (EGPK)

EGPK 112250Z 13010KT 9999 SCT025 08/06 Q1018
EGPK 112220Z 11011KT 9999 SCT025 08/07 Q1018
EGPK 112150Z 12012KT 9999 SCT027 08/06 Q1018
EGPK 112120Z 13009KT 9999 BKN028 08/06 Q1018
EGPK 112050Z 13008KT 9999 BKN025 08/06 Q1018
EGPK 112020Z 11006KT 9999 BKN025 08/06 Q1018
EGPK 111950Z 14012KT 9999 FEW014 BKN023 09/06 Q1018 
EGPK 111920Z 14013KT 9999 FEW014 BKN023 09/06 Q1018 
EGPK 111850Z 14014KT 9999 FEW014 BKN023 09/06 Q1018 
EGPK 111820Z 15013KT 9999 FEW014 BKN023 09/06 Q1018 
EGPK 111750Z 14012KT 9999 FEW014 BKN023 09/06 Q1018 
EGPK 111720Z 15012KT 9999 FEW014 BKN023 09/07 Q1018 
EGPK 111650Z 13008KT 9999 FEW014 BKN023 09/07 Q1018 
EGPK 111620Z 13009KT 9999 FEW014 BKN023 09/07 Q1018 
EGPK 111550Z 14009KT 070V180 9999 FEW014 BKN023 09/07 Q1019 
EGPK 111520Z 14008KT 9999 FEW012 SCT014 BKN038 09/07 Q1019  
EGPK 111450Z 12008KT 9999 FEW012 SCT014 BKN038 09/07 Q1019  
EGPK 111420Z 13008KT 9999 FEW014 SCT018 BKN040 09/07 Q1019  
EGPK 111350Z 14006KT 9999 SCT020 SCT045 09/07 Q1020 
EGPK 111320Z 14005KT 9999 SCT020 SCT045 09/07 Q1020 
EGPK 111250Z 15003KT 9999 FEW018 SCT028 09/07 Q1020 
EGPK 111220Z 12003KT 9999 FEW018 SCT028 09/07 Q1020 
EGPK 111150Z 12004KT 090V150 9999 FEW018 SCT028 09/07 Q1021 
EGPK 111120Z 14006KT 100V190 9999 FEW016 SCT022 09/07 Q1021 
EGPK 111050Z 12006KT 9999 FEW018 SCT045 08/07 Q1021 
EGPK 111020Z 11003KT 9999 FEW018 SCT045 08/07 Q1021 
EGPK 110950Z 12006KT 9999 FEW015 SCT048 08/06 Q1021 
EGPK 110920Z 11006KT 9999 FEW015 SCT048 08/06 Q1021 
EGPK 110850Z 10007KT 9999 FEW015 SCT048 07/06 Q1021 
EGPK 110820Z 10005KT 9999 FEW013 SCT048 07/06 Q1021 
EGPK 110750Z 09003KT 9999 FEW013 SCT048 06/06 Q1021 
EGPK 110720Z 09004KT 9999 FEW014 SCT030 06/05 Q1021 
EGPK 110650Z 09002KT 9999 SCT031 06/05 Q1021
EGPK 110620Z 10006KT 9999 SCT031 07/06 Q1021
EGPK 110550Z 10006KT 9999 SCT031 07/06 Q1021
EGPK 110450Z 10002KT 9999 SCT028 07/06 Q1022
EGPK 110350Z 15004KT 9999 SCT028 08/06 Q1022
EGPK 110250Z VRB03KT 9999 SCT027 08/06 Q1022
EGPK 110150Z 12005KT 9999 SCT027 07/06 Q1023
EGPK 110050Z 10004KT 9999 SCT029 07/05 Q1023
EGPK 102350Z 10004KT 9999 SCT033 07/05 Q1024
EGPK 102320Z 11003KT 9999 SCT035 06/05 Q1024
EGPK 102250Z 11004KT 9999 SCT035 06/05 Q1024
EGPK 102220Z 11002KT 9999 FEW015 SCT033 06/05 Q1025